Time;durP1;ratioP1;P1;durP2;ratioP2;P2;SDS_P1;SDS_P2;PMS_P1;PMS_P2;Temp;Humidity;BMP_temperature;BMP_pressure;BME280_temperature;BME280_humidity;BME280_pressure;Samples;Min_cycle;Max_cycle;Signal;HPM_P1;HPM_P2
2022/12/10 00:13:03;;;;;;;124.90;43.10;;;;;;;2.02;97.01;99682.58;661136;1312;138586;-82
2022/12/10 00:28:07;;;;;;;93.70;39.20;;;;;;;2.09;97.17;99684.59;661022;1310;138627;-83
2022/12/10 00:43:10;;;;;;;67.40;32.50;;;;;;;2.12;96.88;99694.05;660776;1312;138411;-82
2022/12/10 00:58:14;;;;;;;67.90;38.40;;;;;;;2.22;97.31;99696.03;660895;1310;138402;-83
2022/12/10 01:13:17;;;;;;;38.10;21.10;;;;;;;2.31;97.37;99698.56;660951;1313;138286;-85
2022/12/10 01:28:20;;;;;;;36.10;15.70;;;;;;;2.32;97.07;99705.44;660789;1313;138370;-85
2022/12/10 01:43:24;;;;;;;46.60;21.40;;;;;;;2.22;97.40;99695.16;660645;1311;138490;-83
2022/12/10 01:58:27;;;;;;;56.90;24.20;;;;;;;2.32;97.58;99681.24;660702;1312;138419;-83
2022/12/10 02:13:40;;;;;;;64.50;34.60;;;;;;;2.27;97.66;99669.86;660970;1313;138497;-83
2022/12/10 02:29:05;;;;;;;63.10;30.60;;;;;;;2.20;98.09;99664.39;660644;1311;138706;-83
2022/12/10 02:44:12;;;;;;;52.50;23.20;;;;;;;2.10;98.17;99661.91;660745;1313;138243;-83
2022/12/10 02:59:26;;;;;;;56.30;28.60;;;;;;;2.18;98.14;99660.73;660803;1311;138547;-84
2022/12/10 03:14:32;;;;;;;50.40;22.70;;;;;;;2.18;98.28;99659.05;660968;1312;138262;-84
2022/12/10 03:29:45;;;;;;;47.80;26.00;;;;;;;2.16;98.79;99654.31;660553;1313;138587;-84
2022/12/10 03:44:50;;;;;;;42.70;18.70;;;;;;;2.12;99.00;99655.78;660628;1312;138269;-84
2022/12/10 03:59:54;;;;;;;37.30;18.10;;;;;;;2.21;98.86;99658.98;660730;1313;138479;-83
2022/12/10 04:30:19;;;;;;;36.50;16.30;;;;;;;2.29;98.09;99670.20;660598;1312;138530;-84
2022/12/10 04:45:22;;;;;;;50.10;24.10;;;;;;;2.44;97.48;99676.89;660764;1313;138368;-84
2022/12/10 05:00:26;;;;;;;37.40;17.00;;;;;;;2.42;97.69;99679.95;660970;1313;138413;-84
2022/12/10 05:15:29;;;;;;;31.70;15.90;;;;;;;2.28;98.24;99679.23;660590;1312;138516;-84
2022/12/10 05:30:34;;;;;;;34.90;17.90;;;;;;;2.54;96.88;99679.84;660561;1312;138709;-84
2022/12/10 05:45:38;;;;;;;37.80;18.80;;;;;;;2.60;95.91;99680.66;660815;1311;138397;-84
2022/12/10 06:00:41;;;;;;;60.50;28.20;;;;;;;2.57;95.26;99688.96;660744;1305;138331;-84
2022/12/10 06:15:45;;;;;;;149.30;71.20;;;;;;;2.54;95.03;99697.14;660740;1310;138360;-84
2022/12/10 06:30:48;;;;;;;145.70;68.70;;;;;;;2.69;93.83;99705.84;660774;1312;138876;-84
2022/12/10 06:45:51;;;;;;;57.10;30.50;;;;;;;2.63;94.50;99717.43;660583;1312;138666;-84
2022/12/10 07:01:03;;;;;;;62.60;27.50;;;;;;;2.68;94.64;99721.81;660760;1312;138342;-84
2022/12/10 07:16:18;;;;;;;68.20;32.50;;;;;;;2.51;95.26;99724.38;660771;1308;138390;-84
2022/12/10 07:31:22;;;;;;;71.60;31.80;;;;;;;2.44;96.73;99729.67;660693;1312;138446;-84
2022/12/10 07:46:30;;;;;;;90.40;42.80;;;;;;;2.51;96.46;99724.91;660642;1313;138456;-84
2022/12/10 08:01:33;;;;;;;;;;;;;;;2.53;96.17;99717.89;661003;1312;139410;-84
2022/12/10 08:16:38;;;;;;;78.00;32.40;;;;;;;2.52;96.31;99727.65;660665;1311;124414;-82
2022/12/10 08:31:41;;;;;;;78.70;33.60;;;;;;;2.55;96.45;99742.98;660783;1312;138392;-83
2022/12/10 08:46:45;;;;;;;66.40;34.60;;;;;;;2.70;96.68;99744.26;660800;1305;138422;-85
2022/12/10 09:01:48;;;;;;;203.60;76.00;;;;;;;2.70;96.63;99746.37;660843;1312;139081;-86
2022/12/10 09:16:58;;;;;;;172.20;72.50;;;;;;;2.70;96.65;99744.09;660636;1298;138810;-85
2022/12/10 09:32:03;;;;;;;126.00;47.50;;;;;;;2.79;96.90;99736.45;660784;1312;138642;-86
2022/12/10 09:47:09;;;;;;;97.10;41.40;;;;;;;2.90;96.57;99723.66;660885;1305;139137;-87
2022/12/10 10:02:15;;;;;;;96.50;45.90;;;;;;;3.02;96.58;99724.98;660758;1306;138679;-83
2022/12/10 10:17:31;;;;;;;59.00;23.90;;;;;;;3.07;96.41;99732.27;660904;1306;138297;-86
2022/12/10 10:32:35;;;;;;;45.30;22.60;;;;;;;3.15;96.42;99722.58;660813;1308;138317;-83
2022/12/10 10:47:38;;;;;;;94.80;40.80;;;;;;;3.20;96.27;99722.73;660714;1313;138467;-84
2022/12/10 11:02:41;;;;;;;94.00;39.50;;;;;;;3.19;96.20;99720.94;660748;1299;138558;-83
2022/12/10 11:17:54;;;;;;;79.00;35.90;;;;;;;3.23;95.93;99718.43;660769;1312;138372;-86
2022/12/10 11:33:32;;;;;;;60.20;27.00;;;;;;;3.17;96.03;99716.53;660606;1313;138356;-83
2022/12/10 11:48:51;;;;;;;59.80;27.50;;;;;;;3.25;95.77;99707.23;660732;1312;138413;-84
2022/12/10 12:04:27;;;;;;;78.60;38.80;;;;;;;3.24;95.28;99704.66;661025;1311;138656;-84
2022/12/10 12:19:39;;;;;;;57.80;25.90;;;;;;;3.23;95.07;99690.77;660702;1312;138493;-84
2022/12/10 12:34:50;;;;;;;80.20;34.70;;;;;;;3.27;94.97;99692.40;660402;1312;138569;-84
2022/12/10 12:50:04;;;;;;;64.80;25.90;;;;;;;3.17;94.89;99698.41;660659;1312;138398;-84
2022/12/10 13:05:30;;;;;;;74.40;31.90;;;;;;;3.14;95.10;99697.05;661148;1311;22092;-83
2022/12/10 13:21:14;;;;;;;82.00;34.30;;;;;;;3.17;94.68;99715.16;660046;1300;138524;-84
2022/12/10 13:36:33;;;;;;;101.40;37.10;;;;;;;3.14;94.62;99725.04;660469;1307;138421;-84
2022/12/10 13:52:12;;;;;;;61.40;25.30;;;;;;;3.10;94.44;99724.56;661655;1305;138790;-83
2022/12/10 14:07:17;;;;;;;62.00;25.90;;;;;;;3.04;94.33;99730.16;660202;1312;138396;-84
2022/12/10 14:22:45;;;;;;;128.10;44.90;;;;;;;2.92;94.05;99725.08;660072;1312;138341;-83
2022/12/10 14:37:50;;;;;;;131.00;59.20;;;;;;;2.89;93.56;99735.80;661063;1305;138609;-84
2022/12/10 14:52:53;;;;;;;164.40;53.90;;;;;;;2.87;93.26;99736.80;660881;1312;138708;-83
2022/12/10 15:08:01;;;;;;;247.50;86.00;;;;;;;2.79;92.65;99745.27;660753;1311;138467;-83
2022/12/10 15:23:14;;;;;;;96.80;43.10;;;;;;;2.70;91.73;99758.40;660624;1312;138449;-83
2022/12/10 15:38:18;;;;;;;145.00;51.90;;;;;;;2.55;90.10;99752.81;660520;1307;138480;-83
2022/12/10 15:53:28;;;;;;;124.40;45.10;;;;;;;2.39;88.21;99748.97;660846;1312;138928;-83
2022/12/10 16:08:37;;;;;;;138.00;49.00;;;;;;;2.48;88.29;99744.66;660567;1306;138684;-83
2022/12/10 16:23:40;;;;;;;57.70;26.90;;;;;;;2.36;87.39;99753.51;660840;1313;138569;-83
2022/12/10 16:38:44;;;;;;;101.10;36.70;;;;;;;2.40;88.19;99746.18;660715;1312;139181;-84
2022/12/10 16:53:47;;;;;;;86.90;38.00;;;;;;;2.38;88.05;99748.67;660726;1312;138680;-82
2022/12/10 17:08:51;;;;;;;112.70;45.50;;;;;;;2.38;87.39;99762.36;660627;1305;138434;-83
2022/12/10 17:23:54;;;;;;;51.80;23.50;;;;;;;2.31;87.39;99769.13;660908;1312;138586;-82
2022/12/10 17:38:59;;;;;;;106.30;42.90;;;;;;;2.13;87.53;99786.48;660649;1313;138331;-83
2022/12/10 17:54:11;;;;;;;378.90;116.80;;;;;;;2.04;87.62;99800.64;660618;1305;138445;-83
2022/12/10 18:09:20;;;;;;;85.90;35.50;;;;;;;2.07;88.00;99811.33;660488;1313;138852;-83
2022/12/10 18:24:24;;;;;;;83.50;38.20;;;;;;;1.87;87.25;99808.02;660559;1313;138457;-83
2022/12/10 18:39:31;;;;;;;110.40;41.30;;;;;;;1.91;87.61;99805.21;660542;1313;138408;-82
2022/12/10 18:54:34;;;;;;;;;;;;;;;1.72;87.27;99813.56;660517;1313;139597;-83
2022/12/10 19:09:40;;;;;;;90.90;38.50;;;;;;;1.45;87.01;99819.78;660551;1311;125444;-83
2022/12/10 19:24:43;;;;;;;83.20;38.10;;;;;;;1.67;87.17;99816.25;660698;1309;138589;-83
2022/12/10 19:39:47;;;;;;;74.50;35.00;;;;;;;1.68;87.26;99811.38;660426;1313;138313;-83
2022/12/10 19:54:50;;;;;;;45.10;21.40;;;;;;;1.55;87.06;99814.34;660832;1312;138260;-83
2022/12/10 20:09:54;;;;;;;40.90;18.70;;;;;;;1.69;87.61;99801.33;660610;1313;138413;-84
2022/12/10 20:24:57;;;;;;;63.30;28.00;;;;;;;1.62;86.93;99795.34;660662;1312;138381;-85
2022/12/10 20:40:02;;;;;;;77.10;34.30;;;;;;;1.48;86.52;99782.20;660930;1306;138657;-85
2022/12/10 20:55:25;;;;;;;34.50;18.00;;;;;;;1.57;86.40;99775.98;660116;1301;138462;-85
2022/12/10 21:25:52;;;;;;;108.30;36.50;;;;;;;1.23;86.19;99764.17;660591;1313;138412;-84
2022/12/10 21:40:56;;;;;;;49.80;22.10;;;;;;;1.27;86.40;99772.51;660330;1313;138863;-85
2022/12/10 21:56:12;;;;;;;44.30;20.30;;;;;;;1.26;85.99;99764.54;660429;1312;138731;-84
2022/12/10 22:11:16;;;;;;;52.60;25.00;;;;;;;1.25;85.25;99766.46;660506;1312;138469;-84
2022/12/10 22:26:21;;;;;;;40.00;18.70;;;;;;;1.12;85.38;99753.57;660415;1312;138452;-84
2022/12/10 22:41:24;;;;;;;51.60;19.70;;;;;;;1.15;85.19;99756.35;660616;1304;138318;-84
2022/12/10 22:56:29;;;;;;;47.40;21.30;;;;;;;1.36;86.12;99763.75;660419;1307;141265;-84
2022/12/10 23:11:32;;;;;;;59.10;25.10;;;;;;;1.44;85.58;99762.10;660639;1313;138444;-84
2022/12/10 23:26:35;;;;;;;81.50;30.40;;;;;;;1.46;85.62;99734.25;660528;1312;138432;-84
2022/12/10 23:41:46;;;;;;;102.20;38.50;;;;;;;1.26;85.48;99711.09;660402;1312;138373;-84
2022/12/10 23:56:49;;;;;;;31.80;15.80;;;;;;;1.17;85.18;99705.05;660455;1307;138406;-84
